< < Back
Terminal Aerodrome Forecast


Current Version              Previous Versions:   1  2  3  4  5  6  7  8  9  

Terminal Aerodrome Forecast

031
FTUS44 KMOB 221100
TAFPNS
TAF
KPNS 221121Z 2212/2312 11011KT 5SM -RA BR VCSH OVC002
      TEMPO 2212/2214 1SM BR BKN001
     FM221800 13008KT P6SM VCSH OVC010
     FM230000 18007KT 5SM BR VCSH OVC007
     FM230300 18008KT 1 1/2SM BR VCTS OVC007CB PROB30 2306/2312 1SM
      TSRA BR BKN004CB=

Latest METAR

818
SAUS70 KWBC 221900 RRK
MTRPNS
METAR KPNS 221853Z 13008KT 10SM SCT005 BKN020 BKN110 18/17 A2980 RMK AO2
SLP094 T01780167


USA.gov is the U.S. government's official web portal to all federal, state and local government web resources and services.